createdAt,value
2018-07-26T00:00:32.812Z,28.57
2018-07-26T00:01:32.834Z,28.52
2018-07-26T00:02:33.122Z,28.51
2018-07-26T00:03:33.147Z,28.54
2018-07-26T00:04:33.181Z,28.59
2018-07-26T00:05:33.211Z,28.47
2018-07-26T00:06:32.976Z,28.45
2018-07-26T00:07:33.262Z,28.52
2018-07-26T00:08:33.291Z,28.45
2018-07-26T00:09:33.320Z,28.42
2018-07-26T00:10:33.353Z,28.39
2018-07-26T00:11:33.117Z,28.41
2018-07-26T00:12:33.146Z,28.41
2018-07-26T00:13:33.436Z,28.35
2018-07-26T00:14:33.462Z,28.29
2018-07-26T00:15:33.492Z,28.3
2018-07-26T00:16:33.265Z,28.23
2018-07-26T00:17:33.299Z,28.27
2018-07-26T00:18:33.578Z,28.26
2018-07-26T00:19:33.347Z,28.23
2018-07-26T00:20:33.634Z,28.22
2018-07-26T00:21:33.728Z,28.17
2018-07-26T00:22:33.436Z,28.2
2018-07-26T00:23:33.719Z,28.17
2018-07-26T00:24:33.230Z,28.12
2018-07-26T00:25:33.776Z,28.12
2018-07-26T00:26:33.810Z,28.11
2018-07-26T00:27:33.651Z,28
2018-07-26T00:28:33.607Z,28.02
2018-07-26T00:29:33.893Z,28.07
2018-07-26T00:30:33.926Z,28.01
2018-07-26T00:31:33.948Z,28.07
2018-07-26T00:32:33.977Z,28.08
2018-07-26T00:33:34.005Z,28
2018-07-26T00:34:34.081Z,27.9
2018-07-26T00:35:33.837Z,27.98
2018-07-26T00:36:34.094Z,27.87
2018-07-26T00:37:33.858Z,27.92
2018-07-26T00:38:34.146Z,27.86
2018-07-26T00:39:34.176Z,27.85
2018-07-26T00:40:34.204Z,27.86
2018-07-26T00:41:34.231Z,27.82
2018-07-26T00:42:34.000Z,27.8
2018-07-26T00:43:34.295Z,27.77
2018-07-26T00:44:34.313Z,27.8
2018-07-26T00:45:34.086Z,27.71
2018-07-26T00:46:34.371Z,27.73
2018-07-26T00:47:34.398Z,27.73
2018-07-26T00:48:34.429Z,27.67
2018-07-26T00:49:34.196Z,27.68
2018-07-26T00:50:33.968Z,27.63
2018-07-26T00:51:34.514Z,27.63
2018-07-26T00:52:34.541Z,27.64
2018-07-26T00:53:34.581Z,27.67
2018-07-26T00:54:34.333Z,27.6
2018-07-26T00:55:34.621Z,27.58
2018-07-26T00:56:34.667Z,27.59
2018-07-26T00:57:34.679Z,27.6
2018-07-26T00:58:34.719Z,27.47
2018-07-26T00:59:34.474Z,27.51
2018-07-26T01:00:34.764Z,27.52
2018-07-26T01:01:34.537Z,27.48
2018-07-26T01:02:34.829Z,27.47
2018-07-26T01:03:34.594Z,27.47
2018-07-26T01:04:34.879Z,27.4
2018-07-26T01:05:34.907Z,27.44
2018-07-26T01:06:34.670Z,27.44
2018-07-26T01:07:34.959Z,27.39
2018-07-26T01:08:34.732Z,27.26
2018-07-26T01:09:34.783Z,27.32
2018-07-26T01:10:35.044Z,27.32
2018-07-26T01:11:34.551Z,27.27
2018-07-26T01:12:35.101Z,27.26
2018-07-26T01:13:35.127Z,27.25
2018-07-26T01:14:35.161Z,27.32
2018-07-26T01:15:35.191Z,27.25
2018-07-26T01:16:35.213Z,27.17
2018-07-26T01:17:34.982Z,27.21
2018-07-26T01:18:35.007Z,27.15
2018-07-26T01:19:35.294Z,27.18
2018-07-26T01:20:35.063Z,27.11
2018-07-26T01:21:35.096Z,27.08
2018-07-26T01:22:34.857Z,27.11
2018-07-26T01:23:35.146Z,27.03
2018-07-26T01:24:35.432Z,27.08
2018-07-26T01:25:35.463Z,26.97
2018-07-26T01:26:35.227Z,26.99
2018-07-26T01:27:35.252Z,27.03
2018-07-26T01:28:35.549Z,26.99
2018-07-26T01:29:35.574Z,27.03
2018-07-26T01:30:35.341Z,26.99
2018-07-26T01:31:35.372Z,27
2018-07-26T01:32:35.656Z,26.92
2018-07-26T01:33:35.692Z,26.92
2018-07-26T01:34:35.712Z,26.97
2018-07-26T01:35:35.737Z,26.92
2018-07-26T01:36:35.765Z,26.92
2018-07-26T01:37:35.795Z,26.88
2018-07-26T01:38:35.300Z,26.81
2018-07-26T01:39:35.852Z,26.81
2018-07-26T01:40:35.617Z,26.83
2018-07-26T01:41:35.901Z,26.85
2018-07-26T01:42:35.674Z,26.8
2018-07-26T01:43:35.958Z,26.74
2018-07-26T01:44:35.980Z,26.8
2018-07-26T01:45:36.012Z,26.73
2018-07-26T01:46:36.038Z,26.73
2018-07-26T01:47:35.804Z,26.66
2018-07-26T01:48:36.090Z,26.62
2018-07-26T01:49:35.860Z,26.65
2018-07-26T01:50:36.151Z,26.66
2018-07-26T01:51:36.179Z,26.58
2018-07-26T01:52:35.942Z,26.66
2018-07-26T01:53:35.711Z,26.6
2018-07-26T01:54:36.259Z,26.6
2018-07-26T01:55:36.326Z,26.56
2018-07-26T01:56:36.317Z,26.58
2018-07-26T01:57:36.112Z,26.58
2018-07-26T01:58:36.103Z,26.51
2018-07-26T01:59:36.132Z,26.51
2018-07-26T02:00:36.164Z,26.43
2018-07-26T02:01:36.258Z,26.48
2018-07-26T02:02:36.473Z,26.47
2018-07-26T02:03:36.504Z,26.44
2018-07-26T02:04:36.271Z,26.44
2018-07-26T02:05:36.559Z,26.4
2018-07-26T02:06:36.595Z,26.38
2018-07-26T02:07:36.613Z,26.37
2018-07-26T02:08:36.389Z,26.38
2018-07-26T02:09:36.676Z,26.34
2018-07-26T02:10:36.694Z,26.28
2018-07-26T02:11:36.719Z,26.26
2018-07-26T02:12:36.744Z,26.31
2018-07-26T02:13:36.780Z,26.28
2018-07-26T02:14:36.539Z,26.26
2018-07-26T02:15:36.844Z,26.26
2018-07-26T02:16:36.871Z,26.21
2018-07-26T02:17:36.638Z,26.25
2018-07-26T02:18:36.652Z,26.18
2018-07-26T02:19:36.956Z,26.09
2018-07-26T02:20:36.708Z,26.19
2018-07-26T02:21:36.989Z,26.1
2018-07-26T02:22:36.754Z,26.26
2018-07-26T02:23:37.045Z,26.05
2018-07-26T02:24:36.806Z,26.15
2018-07-26T02:25:37.096Z,26.07
2018-07-26T02:26:36.864Z,26.06
2018-07-26T02:27:36.638Z,26.13
2018-07-26T02:28:36.922Z,26.13
2018-07-26T02:29:37.211Z,26.09
2018-07-26T02:30:37.229Z,26.03
2018-07-26T02:31:36.997Z,26.02
2018-07-26T02:32:37.285Z,25.96
2018-07-26T02:33:37.059Z,25.98
2018-07-26T02:34:37.079Z,25.98
2018-07-26T02:35:37.372Z,25.95
2018-07-26T02:36:37.153Z,25.93
2018-07-26T02:37:37.428Z,25.93
2018-07-26T02:38:37.445Z,25.87
2018-07-26T02:39:37.475Z,25.99
2018-07-26T02:40:37.501Z,25.88
2018-07-26T02:41:37.264Z,25.84
2018-07-26T02:42:37.553Z,25.87
2018-07-26T02:43:37.579Z,25.85
2018-07-26T02:44:37.607Z,25.81
2018-07-26T02:45:37.375Z,25.81
2018-07-26T02:46:37.396Z,25.8
2018-07-26T02:47:37.709Z,25.8
2018-07-26T02:48:37.454Z,25.81
2018-07-26T02:49:37.740Z,25.8
2018-07-26T02:50:37.254Z,25.73
2018-07-26T02:51:37.796Z,25.75
2018-07-26T02:52:37.823Z,25.73
2018-07-26T02:53:37.327Z,25.69
2018-07-26T02:54:37.353Z,25.68
2018-07-26T02:55:37.637Z,25.68
2018-07-26T02:56:37.921Z,25.68
2018-07-26T02:57:37.956Z,25.7
2018-07-26T02:58:37.989Z,25.69
2018-07-26T02:59:38.013Z,25.62
2018-07-26T03:00:37.778Z,25.58
2018-07-26T03:01:38.061Z,25.63
2018-07-26T03:02:38.099Z,25.69
2018-07-26T03:03:37.849Z,25.59
2018-07-26T03:04:38.138Z,25.48
2018-07-26T03:05:38.169Z,25.62
2018-07-26T03:06:37.929Z,25.55
2018-07-26T03:07:38.220Z,25.54
2018-07-26T03:08:38.256Z,25.59
2018-07-26T03:09:38.274Z,25.58
2018-07-26T03:10:38.308Z,25.55
2018-07-26T03:11:38.348Z,25.55
2018-07-26T03:12:38.116Z,25.58
2018-07-26T03:13:38.124Z,25.47
2018-07-26T03:14:38.402Z,25.51
2018-07-26T03:15:38.437Z,25.5
2018-07-26T03:16:38.469Z,25.5
2018-07-26T03:17:38.485Z,25.47
2018-07-26T03:18:38.246Z,25.5
2018-07-26T03:19:38.554Z,25.4
2018-07-26T03:20:38.565Z,25.31
2018-07-26T03:21:38.596Z,25.43
2018-07-26T03:22:38.610Z,25.38
2018-07-26T03:23:38.649Z,25.33
2018-07-26T03:24:38.411Z,25.36
2018-07-26T03:25:38.436Z,25.26
2018-07-26T03:26:38.726Z,25.31
2018-07-26T03:27:38.486Z,25.26
2018-07-26T03:28:38.779Z,25.29
2018-07-26T03:29:38.801Z,25.23
2018-07-26T03:30:38.567Z,25.25
2018-07-26T03:31:38.591Z,25.22
2018-07-26T03:32:38.875Z,25.23
2018-07-26T03:33:38.906Z,25.25
2018-07-26T03:34:38.927Z,25.16
2018-07-26T03:35:38.959Z,25.17
2018-07-26T03:36:38.976Z,25.13
2018-07-26T03:37:38.884Z,25.13
2018-07-26T03:38:38.771Z,25.1
2018-07-26T03:39:39.059Z,25.14
2018-07-26T03:40:39.087Z,25.14
2018-07-26T03:41:39.108Z,25.08
2018-07-26T03:42:38.877Z,25.14
2018-07-26T03:43:39.531Z,25.13
2018-07-26T03:44:39.194Z,25.11
2018-07-26T03:45:38.950Z,25.11
2018-07-26T03:46:39.248Z,25.13
2018-07-26T03:47:39.269Z,25.1
2018-07-26T03:48:39.290Z,24.98
2018-07-26T03:49:39.320Z,25.07
2018-07-26T03:50:39.342Z,24.98
2018-07-26T03:51:39.369Z,25.01
2018-07-26T03:52:39.443Z,24.95
2018-07-26T03:53:39.422Z,24.99
2018-07-26T03:54:39.187Z,24.98
2018-07-26T03:55:39.212Z,24.98
2018-07-26T03:56:39.500Z,24.95
2018-07-26T03:57:39.524Z,24.99
2018-07-26T03:58:39.554Z,24.95
2018-07-26T03:59:39.579Z,24.85
2018-07-26T04:00:39.346Z,24.89
2018-07-26T04:01:39.370Z,24.86
2018-07-26T04:02:39.655Z,24.84
2018-07-26T04:03:39.681Z,24.84
2018-07-26T04:04:39.706Z,24.85
2018-07-26T04:05:39.615Z,24.84
2018-07-26T04:06:39.763Z,24.89
2018-07-26T04:07:39.533Z,24.89
2018-07-26T04:08:39.813Z,24.86
2018-07-26T04:09:39.838Z,24.89
2018-07-26T04:10:39.861Z,24.86
2018-07-26T04:11:39.889Z,24.77
2018-07-26T04:12:39.393Z,24.85
2018-07-26T04:13:39.938Z,24.78
2018-07-26T04:14:39.974Z,24.8
2018-07-26T04:15:39.731Z,24.76
2018-07-26T04:16:40.023Z,24.84
2018-07-26T04:17:40.063Z,24.81
2018-07-26T04:18:40.071Z,24.76
2018-07-26T04:19:39.835Z,24.76
2018-07-26T04:20:39.866Z,24.81
2018-07-26T04:21:39.886Z,24.74
2018-07-26T04:22:40.172Z,24.81
2018-07-26T04:23:40.200Z,24.74
2018-07-26T04:24:40.234Z,24.74
2018-07-26T04:25:40.252Z,24.7
2018-07-26T04:26:40.274Z,24.74
2018-07-26T04:27:40.041Z,24.7
2018-07-26T04:28:40.332Z,24.68
2018-07-26T04:29:40.093Z,24.78
2018-07-26T04:30:40.125Z,24.68
2018-07-26T04:31:40.408Z,24.69
2018-07-26T04:32:40.427Z,24.66
2018-07-26T04:33:40.271Z,24.68
2018-07-26T04:34:40.222Z,24.65
2018-07-26T04:35:40.509Z,24.7
2018-07-26T04:36:40.530Z,24.73
2018-07-26T04:37:40.300Z,24.65
2018-07-26T04:38:40.328Z,24.65
2018-07-26T04:39:40.610Z,24.7
2018-07-26T04:40:40.386Z,24.66
2018-07-26T04:41:40.666Z,24.68
2018-07-26T04:42:40.696Z,24.61
2018-07-26T04:43:40.713Z,24.63
2018-07-26T04:44:40.474Z,24.65
2018-07-26T04:45:40.783Z,24.65
2018-07-26T04:46:40.539Z,24.6
2018-07-26T04:47:40.813Z,24.63
2018-07-26T04:48:40.581Z,24.61
2018-07-26T04:49:40.606Z,24.58
2018-07-26T04:50:40.708Z,24.58
2018-07-26T04:51:40.917Z,24.69
2018-07-26T04:52:41.007Z,24.61
2018-07-26T04:53:40.714Z,24.58
2018-07-26T04:54:41.243Z,24.55
2018-07-26T04:55:40.758Z,24.54
2018-07-26T04:56:41.045Z,24.55
2018-07-26T04:57:40.811Z,24.58
2018-07-26T04:58:40.837Z,24.5
2018-07-26T04:59:41.122Z,24.58
2018-07-26T05:00:40.885Z,24.54
2018-07-26T05:01:41.180Z,24.57
2018-07-26T05:02:41.194Z,24.57
2018-07-26T05:03:40.965Z,24.58
2018-07-26T05:04:41.252Z,24.57
2018-07-26T05:05:41.279Z,24.57
2018-07-26T05:06:40.780Z,24.55
2018-07-26T05:07:41.065Z,24.5
2018-07-26T05:08:41.352Z,24.53
2018-07-26T05:09:41.383Z,24.57
2018-07-26T05:10:41.146Z,24.55
2018-07-26T05:11:40.907Z,24.54
2018-07-26T05:12:41.202Z,24.53
2018-07-26T05:13:41.217Z,24.57
2018-07-26T05:14:41.245Z,24.5
2018-07-26T05:15:41.272Z,24.58
2018-07-26T05:16:41.304Z,24.58
2018-07-26T05:17:41.326Z,24.53
2018-07-26T05:18:41.759Z,24.6
2018-07-26T05:19:41.373Z,24.53
2018-07-26T05:20:41.653Z,24.53
2018-07-26T05:21:41.692Z,24.58
2018-07-26T05:22:41.712Z,24.54
2018-07-26T05:23:41.474Z,24.63
2018-07-26T05:24:41.497Z,24.53
2018-07-26T05:25:41.521Z,24.54
2018-07-26T05:26:41.562Z,24.68
2018-07-26T05:27:41.985Z,24.61
2018-07-26T05:28:41.486Z,24.54
2018-07-26T05:29:41.644Z,24.6
2018-07-26T05:30:41.652Z,24.68
2018-07-26T05:31:41.943Z,24.63
2018-07-26T05:32:41.957Z,24.58
2018-07-26T05:33:41.734Z,24.66
2018-07-26T05:34:42.034Z,24.6
2018-07-26T05:35:41.810Z,24.69
2018-07-26T05:36:42.061Z,24.6
2018-07-26T05:37:42.203Z,24.65
2018-07-26T05:38:41.593Z,24.58
2018-07-26T05:39:41.876Z,24.69
2018-07-26T05:40:42.210Z,24.66
2018-07-26T05:41:42.189Z,24.61
2018-07-26T05:42:41.953Z,24.66
2018-07-26T05:43:41.727Z,24.6
2018-07-26T05:44:42.012Z,24.73
2018-07-26T05:45:41.777Z,24.69
2018-07-26T05:46:42.321Z,24.6
2018-07-26T05:47:42.354Z,24.69
2018-07-26T05:48:42.372Z,24.66
2018-07-26T05:49:42.392Z,24.68
2018-07-26T05:50:42.160Z,24.73
2018-07-26T05:51:42.449Z,24.7
2018-07-26T05:52:42.470Z,24.73
2018-07-26T05:53:42.498Z,24.74
2018-07-26T05:54:42.530Z,24.76
2018-07-26T05:55:42.545Z,24.76
2018-07-26T05:56:42.311Z,24.8
2018-07-26T05:57:42.335Z,24.76
2018-07-26T05:58:42.362Z,24.69
2018-07-26T05:59:42.391Z,24.8
2018-07-26T06:00:42.676Z,24.74
2018-07-26T06:01:42.697Z,24.65
2018-07-26T06:02:42.727Z,24.88
2018-07-26T06:03:42.491Z,24.84
2018-07-26T06:04:42.777Z,24.88
2018-07-26T06:05:42.803Z,24.86
2018-07-26T06:06:42.827Z,24.86
2018-07-26T06:07:42.856Z,24.85
2018-07-26T06:08:42.873Z,24.86
2018-07-26T06:09:43.083Z,24.85
2018-07-26T06:10:42.671Z,24.84
2018-07-26T06:11:42.958Z,24.88
2018-07-26T06:12:42.720Z,24.95
2018-07-26T06:13:43.005Z,24.98
2018-07-26T06:14:43.029Z,24.93
2018-07-26T06:15:43.053Z,24.93
2018-07-26T06:16:42.822Z,24.95
2018-07-26T06:17:43.106Z,24.98
2018-07-26T06:18:43.133Z,25.01
2018-07-26T06:19:43.160Z,25.06
2018-07-26T06:20:43.076Z,25.06
2018-07-26T06:21:43.213Z,25.08
2018-07-26T06:22:42.971Z,25.11
2018-07-26T06:23:43.262Z,25.16
2018-07-26T06:24:43.027Z,25.16
2018-07-26T06:25:43.044Z,25.18
2018-07-26T06:26:43.077Z,25.11
2018-07-26T06:27:43.121Z,25.21
2018-07-26T06:28:43.394Z,25.23
2018-07-26T06:29:43.150Z,25.25
2018-07-26T06:30:43.175Z,25.22
2018-07-26T06:31:43.202Z,25.28
2018-07-26T06:32:43.486Z,25.38
2018-07-26T06:33:43.721Z,25.29
2018-07-26T06:34:43.282Z,25.35
2018-07-26T06:35:43.046Z,25.31
2018-07-26T06:36:43.326Z,25.38
2018-07-26T06:37:43.618Z,25.44
2018-07-26T06:38:43.377Z,25.29
2018-07-26T06:39:43.678Z,25.46
2018-07-26T06:40:43.690Z,25.41
2018-07-26T06:41:43.198Z,25.46
2018-07-26T06:42:43.744Z,25.47
2018-07-26T06:43:43.517Z,25.47
2018-07-26T06:44:43.534Z,25.53
2018-07-26T06:45:43.822Z,25.58
2018-07-26T06:46:43.844Z,25.58
2018-07-26T06:47:43.876Z,25.63
2018-07-26T06:48:43.905Z,25.5
2018-07-26T06:49:43.659Z,25.65
2018-07-26T06:50:43.945Z,25.59
2018-07-26T06:51:43.970Z,25.68
2018-07-26T06:52:43.740Z,25.73
2018-07-26T06:53:43.770Z,25.66
2018-07-26T06:54:43.793Z,25.73
2018-07-26T06:55:43.814Z,25.7
2018-07-26T06:56:44.101Z,25.8
2018-07-26T06:57:44.127Z,25.83
2018-07-26T06:58:43.909Z,25.87
2018-07-26T06:59:44.177Z,25.84
2018-07-26T07:00:44.011Z,25.91
2018-07-26T07:01:44.234Z,25.85
2018-07-26T07:02:43.991Z,25.93
2018-07-26T07:03:44.282Z,25.95
2018-07-26T07:04:44.312Z,25.98
2018-07-26T07:05:44.077Z,26.06
2018-07-26T07:06:44.407Z,26.18
2018-07-26T07:07:44.386Z,26.09
2018-07-26T07:08:44.151Z,26.07
2018-07-26T07:09:44.181Z,26.16
2018-07-26T07:10:44.464Z,26.23
2018-07-26T07:11:44.487Z,26.26
2018-07-26T07:12:44.510Z,26.23
2018-07-26T07:13:44.279Z,26.29
2018-07-26T07:14:44.568Z,26.31
2018-07-26T07:15:44.331Z,26.36
2018-07-26T07:16:44.631Z,26.47
2018-07-26T07:17:44.391Z,26.52
2018-07-26T07:18:44.674Z,26.53
2018-07-26T07:19:44.700Z,26.58
2018-07-26T07:20:44.460Z,26.63
2018-07-26T07:21:44.228Z,26.63
2018-07-26T07:22:44.510Z,26.73
2018-07-26T07:23:44.802Z,26.84
2018-07-26T07:24:44.569Z,26.83
2018-07-26T07:25:44.850Z,26.84
2018-07-26T07:26:44.878Z,26.96
2018-07-26T07:27:45.001Z,26.95
2018-07-26T07:28:44.676Z,27.02
2018-07-26T07:29:44.971Z,27.11
2018-07-26T07:30:44.730Z,27.14
2018-07-26T07:31:44.747Z,27.18
2018-07-26T07:32:45.035Z,27.25
2018-07-26T07:33:45.064Z,27.27
2018-07-26T07:34:44.842Z,27.42
2018-07-26T07:35:45.112Z,27.45
2018-07-26T07:36:44.907Z,27.48
2018-07-26T07:37:45.189Z,27.52
2018-07-26T07:38:45.197Z,27.59
2018-07-26T07:39:45.221Z,27.64
2018-07-26T07:40:44.725Z,27.71
2018-07-26T07:41:45.343Z,27.75
2018-07-26T07:42:44.782Z,27.83
2018-07-26T07:43:45.328Z,27.95
2018-07-26T07:44:45.090Z,27.95
2018-07-26T07:45:45.116Z,27.93
2018-07-26T07:46:45.648Z,28.07
2018-07-26T07:47:45.511Z,28.14
2018-07-26T07:48:45.195Z,28.23
2018-07-26T07:49:45.481Z,28.27
2018-07-26T07:50:45.249Z,28.35
2018-07-26T07:51:45.275Z,28.33
2018-07-26T07:52:45.326Z,28.41
2018-07-26T07:53:45.585Z,28.48
2018-07-26T07:54:45.614Z,28.64
2018-07-26T07:55:45.381Z,28.66
2018-07-26T07:56:45.672Z,28.79
2018-07-26T07:57:45.699Z,28.76
2018-07-26T07:58:45.475Z,28.88
2018-07-26T07:59:45.884Z,28.93
2018-07-26T08:00:45.271Z,29.01
2018-07-26T08:01:45.805Z,29.02
2018-07-26T08:02:45.830Z,29.1
2018-07-26T08:03:45.853Z,29.16
2018-07-26T08:04:45.882Z,29.22
2018-07-26T08:05:45.648Z,29.22
2018-07-26T08:06:46.073Z,29.29
2018-07-26T08:07:45.964Z,29.35
2018-07-26T08:08:45.471Z,29.47
2018-07-26T08:09:45.755Z,29.5
2018-07-26T08:10:46.042Z,29.49
2018-07-26T08:11:45.813Z,29.59
2018-07-26T08:12:46.166Z,29.57
2018-07-26T08:13:46.128Z,29.66
2018-07-26T08:14:46.213Z,29.75
2018-07-26T08:15:46.184Z,29.71
2018-07-26T08:16:46.281Z,29.75
2018-07-26T08:17:45.976Z,29.81
2018-07-26T08:18:46.006Z,29.9
2018-07-26T08:19:46.027Z,29.98
2018-07-26T08:20:46.318Z,30.05
2018-07-26T08:21:46.342Z,30.05
2018-07-26T08:22:46.376Z,30.12
2018-07-26T08:23:46.139Z,30.18
2018-07-26T08:24:46.431Z,30.25
2018-07-26T08:25:46.197Z,30.35
2018-07-26T08:26:46.481Z,30.4
2018-07-26T08:27:46.508Z,30.51
2018-07-26T08:28:46.534Z,30.59
2018-07-26T08:29:46.044Z,30.73
2018-07-26T08:30:46.348Z,30.69
2018-07-26T08:31:46.625Z,30.92
2018-07-26T08:32:46.392Z,30.85
2018-07-26T08:33:46.414Z,31.05
2018-07-26T08:34:46.702Z,31.12
2018-07-26T08:35:46.731Z,31.15
2018-07-26T08:36:46.769Z,31.24
2018-07-26T08:37:46.534Z,31.29
2018-07-26T08:38:46.833Z,31.42
2018-07-26T08:39:46.843Z,31.42
2018-07-26T08:40:46.615Z,31.51
2018-07-26T08:41:46.904Z,31.56
2018-07-26T08:42:46.663Z,31.71
2018-07-26T08:43:46.493Z,31.78
2018-07-26T08:44:46.984Z,31.92
2018-07-26T08:45:46.754Z,31.92
2018-07-26T08:46:46.780Z,32.04
2018-07-26T08:47:46.805Z,32.22
2018-07-26T08:48:46.836Z,32.22
2018-07-26T08:49:46.602Z,32.27
2018-07-26T08:50:46.894Z,32.37
2018-07-26T08:51:46.917Z,32.49
2018-07-26T08:52:47.210Z,32.56
2018-07-26T08:53:47.234Z,32.56
2018-07-26T08:54:47.008Z,32.65
2018-07-26T08:55:47.031Z,32.73
2018-07-26T08:56:47.061Z,32.78
2018-07-26T08:57:47.348Z,32.85
2018-07-26T08:58:47.379Z,33
2018-07-26T08:59:47.410Z,33.05
2018-07-26T09:00:47.181Z,33.05
2018-07-26T09:01:47.471Z,33.19
2018-07-26T09:02:47.581Z,33.28
2018-07-26T09:03:47.532Z,33.3
2018-07-26T09:04:47.559Z,33.32
2018-07-26T09:05:47.326Z,33.37
2018-07-26T09:06:47.348Z,33.45
2018-07-26T09:07:47.646Z,33.45
2018-07-26T09:08:47.411Z,33.61
2018-07-26T09:09:47.217Z,33.71
2018-07-26T09:10:47.785Z,33.77
2018-07-26T09:11:47.772Z,33.81
2018-07-26T09:12:47.789Z,33.83
2018-07-26T09:13:48.005Z,33.92
2018-07-26T09:14:47.587Z,33.92
2018-07-26T09:15:47.881Z,33.99
2018-07-26T09:16:47.902Z,34.14
2018-07-26T09:17:47.945Z,34.06
2018-07-26T09:18:47.963Z,34.18
2018-07-26T09:19:47.875Z,34.18
2018-07-26T09:20:48.022Z,34.29
2018-07-26T09:21:47.797Z,34.36
2018-07-26T09:22:48.080Z,34.42
2018-07-26T09:23:47.849Z,34.51
2018-07-26T09:24:47.880Z,34.62
2018-07-26T09:25:47.912Z,34.7
2018-07-26T09:26:48.208Z,34.75
2018-07-26T09:27:47.714Z,34.89
2018-07-26T09:28:48.312Z,35.05
2018-07-26T09:29:48.031Z,35.05
2018-07-26T09:30:48.320Z,35.23
2018-07-26T09:31:48.093Z,35.31
2018-07-26T09:32:48.391Z,35.3
2018-07-26T09:33:48.429Z,35.39
2018-07-26T09:34:48.441Z,35.52
2018-07-26T09:35:48.480Z,35.51
2018-07-26T09:36:48.506Z,35.64
2018-07-26T09:37:48.530Z,35.71
2018-07-26T09:38:48.564Z,35.85
2018-07-26T09:39:48.593Z,35.92
2018-07-26T09:40:48.365Z,36.02
2018-07-26T09:41:48.399Z,36.17
2018-07-26T09:42:48.423Z,36.24
2018-07-26T09:43:48.452Z,36.23
2018-07-26T09:44:48.745Z,36.25
2018-07-26T09:45:48.788Z,36.25
2018-07-26T09:46:48.547Z,36.31
2018-07-26T09:47:48.839Z,36.37
2018-07-26T09:48:48.614Z,36.35
2018-07-26T09:49:48.736Z,36.37
2018-07-26T09:50:48.932Z,36.54
2018-07-26T09:51:48.965Z,36.47
2018-07-26T09:52:48.733Z,36.61
2018-07-26T09:53:48.763Z,36.64
2018-07-26T09:54:49.067Z,36.62
2018-07-26T09:55:49.089Z,36.74
2018-07-26T09:56:49.116Z,36.77
2018-07-26T09:57:48.888Z,36.76
2018-07-26T09:58:49.184Z,36.81
2018-07-26T09:59:49.210Z,36.83
2018-07-26T10:00:49.248Z,36.96
2018-07-26T10:01:49.278Z,36.93
2018-07-26T10:02:49.304Z,37.06
2018-07-26T10:03:49.080Z,37.13
2018-07-26T10:04:49.378Z,37.2
2018-07-26T10:05:49.400Z,37.25
2018-07-26T10:06:49.256Z,37.33
2018-07-26T10:07:49.460Z,37.36
2018-07-26T10:08:49.500Z,37.49
2018-07-26T10:09:49.523Z,37.49
2018-07-26T10:10:49.565Z,37.59
2018-07-26T10:11:49.587Z,37.6
2018-07-26T10:12:49.621Z,37.55
2018-07-26T10:13:49.655Z,37.64
2018-07-26T10:14:49.699Z,37.67
2018-07-26T10:15:49.480Z,37.75
2018-07-26T10:16:49.230Z,37.83
2018-07-26T10:17:49.521Z,37.78
2018-07-26T10:18:49.816Z,37.89
2018-07-26T10:19:49.843Z,37.92
2018-07-26T10:20:49.888Z,38.06
2018-07-26T10:21:49.651Z,38.08
2018-07-26T10:22:49.424Z,38.17
2018-07-26T10:23:49.979Z,38.21
2018-07-26T10:24:50.011Z,38.27
2018-07-26T10:25:50.039Z,38.31
2018-07-26T10:26:50.077Z,38.39
2018-07-26T10:27:50.290Z,38.48
2018-07-26T10:28:49.904Z,38.49
2018-07-26T10:29:49.911Z,38.5
2018-07-26T10:30:49.683Z,38.58
2018-07-26T10:31:49.985Z,38.64
2018-07-26T10:32:50.264Z,38.76
2018-07-26T10:33:50.304Z,38.82
2018-07-26T10:34:50.339Z,38.84
2018-07-26T10:35:50.371Z,38.96
2018-07-26T10:36:50.397Z,38.97
2018-07-26T10:37:50.436Z,39.09
2018-07-26T10:38:50.470Z,39.21
2018-07-26T10:39:50.498Z,39.18
2018-07-26T10:40:50.269Z,39.21
2018-07-26T10:41:50.304Z,39.34
2018-07-26T10:42:50.602Z,39.41
2018-07-26T10:43:50.643Z,39.48
2018-07-26T10:44:50.400Z,39.58
2018-07-26T10:45:50.706Z,39.6
2018-07-26T10:46:50.474Z,39.65
2018-07-26T10:47:50.760Z,39.74
2018-07-26T10:48:50.795Z,39.8
2018-07-26T10:49:50.893Z,39.92
2018-07-26T10:50:50.609Z,39.99
2018-07-26T10:51:50.377Z,40.11
2018-07-26T10:52:50.669Z,40.23
2018-07-26T10:53:50.967Z,40.24
2018-07-26T10:54:50.997Z,40.31
2018-07-26T10:55:51.039Z,40.33
2018-07-26T10:56:51.117Z,40.33
2018-07-26T10:57:51.099Z,40.5
2018-07-26T10:58:50.609Z,40.61
2018-07-26T10:59:51.169Z,40.54
2018-07-26T11:00:51.196Z,40.65
2018-07-26T11:01:51.239Z,40.61
2018-07-26T11:02:51.264Z,40.75
2018-07-26T11:03:51.210Z,40.77
2018-07-26T11:04:51.330Z,40.77
2018-07-26T11:05:51.370Z,40.87
2018-07-26T11:06:50.881Z,40.88
2018-07-26T11:07:51.175Z,40.96
2018-07-26T11:08:51.214Z,40.96
2018-07-26T11:09:51.247Z,41.03
2018-07-26T11:10:51.276Z,41.14
2018-07-26T11:11:51.574Z,41.21
2018-07-26T11:12:51.377Z,41.29
2018-07-26T11:13:51.642Z,41.41
2018-07-26T11:14:51.417Z,41.36
2018-07-26T11:15:51.451Z,41.36
2018-07-26T11:16:51.487Z,41.43
2018-07-26T11:17:51.777Z,41.5
2018-07-26T11:18:51.597Z,41.53
2018-07-26T11:19:51.586Z,41.63
2018-07-26T11:20:51.878Z,41.56
2018-07-26T11:21:51.913Z,41.68
2018-07-26T11:22:51.950Z,41.68
2018-07-26T11:23:51.989Z,41.65
2018-07-26T11:24:52.026Z,41.72
2018-07-26T11:25:51.799Z,41.8
2018-07-26T11:26:51.832Z,41.85
2018-07-26T11:27:52.127Z,41.92
2018-07-26T11:28:51.641Z,41.91
2018-07-26T11:29:52.320Z,41.98
2018-07-26T11:30:51.969Z,41.97
2018-07-26T11:31:52.265Z,41.99
2018-07-26T11:32:52.307Z,42.01
2018-07-26T11:33:52.338Z,42.04
2018-07-26T11:34:52.373Z,42.1
2018-07-26T11:35:52.209Z,42.09
2018-07-26T11:36:52.182Z,42.2
2018-07-26T11:37:52.310Z,42.28
2018-07-26T11:38:52.513Z,42.32
2018-07-26T11:39:52.302Z,42.32
2018-07-26T11:40:52.581Z,42.41
2018-07-26T11:41:52.879Z,42.45
2018-07-26T11:42:52.393Z,42.53
2018-07-26T11:43:52.737Z,42.58
2018-07-26T11:44:52.481Z,42.6
2018-07-26T11:45:52.761Z,42.69
2018-07-26T11:46:52.793Z,42.7
2018-07-26T11:47:52.829Z,42.82
2018-07-26T11:48:52.612Z,42.81
2018-07-26T11:49:52.650Z,42.84
2018-07-26T11:50:52.940Z,42.84
2018-07-26T11:51:52.452Z,43
2018-07-26T11:52:53.227Z,42.91
2018-07-26T11:53:52.830Z,43.04
2018-07-26T11:54:53.082Z,43.07
2018-07-26T11:55:52.602Z,43.06
2018-07-26T11:56:53.300Z,43.15
2018-07-26T11:57:52.938Z,43.2
2018-07-26T11:58:53.223Z,43.16
2018-07-26T11:59:53.004Z,43.28
2018-07-26T12:00:53.311Z,43.31
2018-07-26T12:01:53.347Z,43.38
2018-07-26T12:02:53.374Z,43.42
2018-07-26T12:03:53.142Z,43.53
2018-07-26T12:04:53.186Z,43.48
2018-07-26T12:05:53.215Z,43.62
2018-07-26T12:06:53.251Z,43.68
2018-07-26T12:07:53.289Z,43.74
2018-07-26T12:08:53.082Z,43.83
2018-07-26T12:09:53.622Z,43.89
2018-07-26T12:10:53.398Z,43.94
2018-07-26T12:11:53.700Z,43.92
2018-07-26T12:12:53.733Z,43.98
2018-07-26T12:13:53.773Z,44.01
2018-07-26T12:14:53.822Z,43.95
2018-07-26T12:15:53.325Z,44.03
2018-07-26T12:16:53.613Z,44.08
2018-07-26T12:17:53.656Z,43.98
2018-07-26T12:18:53.687Z,44.03
2018-07-26T12:19:53.984Z,44.1
2018-07-26T12:20:54.024Z,44.21
2018-07-26T12:21:54.062Z,44.2
2018-07-26T12:22:54.098Z,44.21
2018-07-26T12:23:54.130Z,44.24
2018-07-26T12:24:53.908Z,44.33
2018-07-26T12:25:53.944Z,44.39
2018-07-26T12:26:54.246Z,44.34
2018-07-26T12:27:54.277Z,44.39
2018-07-26T12:28:54.058Z,44.34
2018-07-26T12:29:54.354Z,44.37
2018-07-26T12:30:54.132Z,44.37
2018-07-26T12:31:54.425Z,44.48
2018-07-26T12:32:54.464Z,44.36
2018-07-26T12:33:54.498Z,44.49
2018-07-26T12:34:54.277Z,44.52
2018-07-26T12:35:54.416Z,44.48
2018-07-26T12:36:54.088Z,44.59
2018-07-26T12:37:54.658Z,44.64
2018-07-26T12:38:54.425Z,44.67
2018-07-26T12:39:54.731Z,44.59
2018-07-26T12:40:54.760Z,44.58
2018-07-26T12:41:54.801Z,44.59
2018-07-26T12:42:54.838Z,44.61
2018-07-26T12:43:54.870Z,44.61
2018-07-26T12:44:54.909Z,44.59
2018-07-26T12:45:54.689Z,44.54
2018-07-26T12:46:54.724Z,44.55
2018-07-26T12:47:54.848Z,44.61
2018-07-26T12:48:55.063Z,44.58
2018-07-26T12:49:54.830Z,44.56
2018-07-26T12:50:55.131Z,44.61
2018-07-26T12:51:55.169Z,44.68
2018-07-26T12:52:55.209Z,44.68
2018-07-26T12:53:55.243Z,44.76
2018-07-26T12:54:55.563Z,44.79
2018-07-26T12:55:55.320Z,44.88